Time;durP1;ratioP1;P1;durP2;ratioP2;P2;SDS_P1;SDS_P2;PMS_P1;PMS_P2;Temp;Humidity;BMP_temperature;BMP_pressure;BME280_temperature;BME280_humidity;BME280_pressure;Samples;Min_cycle;Max_cycle;Signal;HPM_P1;HPM_P2
2023/08/01 00:02:03;;;;;;;13.15;5.90;;;17.90;99.90;;;;;;6353518;28;20047;-81
2023/08/01 00:05:05;;;;;;;9.65;5.82;;;18.00;99.90;;;;;;6353553;28;20050;-81
2023/08/01 00:08:07;;;;;;;10.77;6.82;;;18.00;99.90;;;;;;6352760;28;20046;-81
2023/08/01 00:11:09;;;;;;;9.85;5.53;;;18.00;99.90;;;;;;6352266;28;20039;-80
2023/08/01 00:14:11;;;;;;;6.60;5.88;;;18.00;99.90;;;;;;6353435;28;20047;-81
2023/08/01 00:17:14;;;;;;;11.23;5.63;;;18.00;99.90;;;;;;6352557;28;20050;-81
2023/08/01 00:20:16;;;;;;;11.52;5.97;;;17.90;99.90;;;;;;6351947;28;20051;-81
2023/08/01 00:23:17;;;;;;;11.27;5.85;;;17.90;99.90;;;;;;6352384;28;20498;-81
2023/08/01 00:26:19;;;;;;;8.82;5.72;;;17.90;99.90;;;;;;6353064;28;20114;-80
2023/08/01 00:29:21;;;;;;;9.25;6.20;;;17.90;99.90;;;;;;6351675;28;20051;-81
2023/08/01 00:32:24;;;;;;;9.90;6.55;;;17.80;99.90;;;;;;6352863;28;20048;-81
2023/08/01 00:35:26;;;;;;;10.55;6.05;;;17.90;99.90;;;;;;6351203;28;20051;-80
2023/08/01 00:38:28;;;;;;;8.05;5.93;;;17.80;99.90;;;;;;6352360;28;20135;-81
2023/08/01 00:41:29;;;;;;;12.07;5.90;;;17.80;99.90;;;;;;6351799;28;20430;-81
2023/08/01 00:44:31;;;;;;;8.82;5.97;;;17.80;99.90;;;;;;6351323;28;20418;-81
2023/08/01 00:47:34;;;;;;;7.65;6.53;;;17.80;99.90;;;;;;6369721;27;20494;-80
2023/08/01 00:50:36;;;;;;;10.25;5.60;;;17.80;99.90;;;;;;6353320;27;20058;-82
2023/08/01 00:53:38;;;;;;;10.02;6.35;;;17.80;99.90;;;;;;6350024;27;20040;-81
2023/08/01 00:56:40;;;;;;;10.13;6.55;;;17.80;99.90;;;;;;6350883;27;20039;-81
2023/08/01 00:59:41;;;;;;;7.03;5.28;;;17.80;99.90;;;;;;6352345;27;20060;-81
2023/08/01 01:02:44;;;;;;;7.60;5.25;;;17.90;99.90;;;;;;6354369;28;20495;-80
2023/08/01 01:05:54;;;;;;;10.73;5.43;;;17.90;99.90;;;;;;6354397;28;20513;-81
2023/08/01 01:08:56;;;;;;;8.73;5.78;;;17.90;99.90;;;;;;6350857;27;20139;-81
2023/08/01 01:11:58;;;;;;;7.72;4.57;;;17.90;99.90;;;;;;6356237;27;20141;-82
2023/08/01 01:14:59;;;;;;;7.93;5.07;;;17.80;99.90;;;;;;6376004;27;20122;-82
2023/08/01 01:18:02;;;;;;;8.85;6.32;;;17.80;99.90;;;;;;6377124;27;20062;-82
2023/08/01 01:21:06;;;;;;;15.70;6.22;;;17.80;99.90;;;;;;6376761;27;20447;-81
2023/08/01 01:24:10;;;;;;;10.45;6.13;;;17.80;99.90;;;;;;6376656;27;20493;-81
2023/08/01 01:27:13;;;;;;;6.95;4.97;;;17.70;99.90;;;;;;6376091;27;20039;-82
2023/08/01 01:30:15;;;;;;;8.50;5.65;;;17.70;99.90;;;;;;6377036;27;20058;-81
2023/08/01 01:33:17;;;;;;;10.38;5.28;;;17.70;99.90;;;;;;6376557;27;20039;-81
2023/08/01 01:36:20;;;;;;;8.93;5.68;;;17.70;99.90;;;;;;6375719;27;20051;-81
2023/08/01 01:39:21;;;;;;;7.63;6.55;;;17.60;99.90;;;;;;6375727;27;20517;-81
2023/08/01 01:42:23;;;;;;;6.97;5.90;;;17.60;99.90;;;;;;6376501;27;20127;-82
2023/08/01 01:45:25;;;;;;;10.68;5.80;;;17.60;99.90;;;;;;6378374;27;20043;-81
2023/08/01 01:48:26;;;;;;;8.48;5.63;;;17.60;99.90;;;;;;6377069;27;20548;-81
2023/08/01 01:51:31;;;;;;;9.63;5.93;;;17.60;99.90;;;;;;6377554;27;20047;-81
2023/08/01 01:54:32;;;;;;;8.75;5.72;;;17.60;99.90;;;;;;6377596;27;20047;-82
2023/08/01 01:57:36;;;;;;;10.85;5.93;;;17.60;99.90;;;;;;6375993;27;20057;-82
2023/08/01 02:00:37;;;;;;;8.57;5.72;;;17.60;99.90;;;;;;6376266;27;20051;-81
2023/08/01 02:03:39;;;;;;;11.23;5.95;;;17.60;99.90;;;;;;6376097;27;20044;-82
2023/08/01 02:06:42;;;;;;;12.77;6.15;;;17.60;99.90;;;;;;6377517;27;20051;-82
2023/08/01 02:09:44;;;;;;;10.95;5.97;;;17.60;99.90;;;;;;6375493;27;20485;-81
2023/08/01 02:12:46;;;;;;;10.93;6.22;;;17.70;99.90;;;;;;6375926;27;20047;-82
2023/08/01 02:15:47;;;;;;;9.32;5.13;;;17.70;99.90;;;;;;6375858;27;20046;-82
2023/08/01 02:18:49;;;;;;;9.73;6.05;;;17.70;99.90;;;;;;6374639;27;20054;-82
2023/08/01 02:21:52;;;;;;;9.73;6.43;;;17.70;99.90;;;;;;6375812;27;20050;-82
2023/08/01 02:24:54;;;;;;;10.00;6.05;;;17.70;99.90;;;;;;6374936;27;20184;-81
2023/08/01 02:27:55;;;;;;;7.63;5.22;;;17.80;99.90;;;;;;6375043;27;20054;-82
2023/08/01 02:30:57;;;;;;;10.48;6.90;;;17.80;99.90;;;;;;6376490;27;20058;-82
2023/08/01 02:33:59;;;;;;;8.77;6.57;;;17.80;99.90;;;;;;6376592;27;20043;-82
2023/08/01 02:37:02;;;;;;;10.00;5.43;;;17.80;99.90;;;;;;6375029;27;20044;-82
2023/08/01 02:40:07;;;;;;;14.77;6.18;;;17.80;99.90;;;;;;6374037;27;20051;-81
2023/08/01 02:43:08;;;;;;;7.93;4.55;;;17.80;99.90;;;;;;6374743;27;20054;-82
2023/08/01 02:46:10;;;;;;;10.52;6.05;;;17.80;99.90;;;;;;6374897;27;20196;-81
2023/08/01 02:49:12;;;;;;;10.48;5.95;;;17.80;99.90;;;;;;6373988;27;20058;-81
2023/08/01 02:52:15;;;;;;;8.00;6.20;;;17.80;99.90;;;;;;6374940;27;20039;-81
2023/08/01 02:55:16;;;;;;;12.48;6.30;;;17.80;99.90;;;;;;6374339;27;20062;-82
2023/08/01 02:58:18;;;;;;;11.63;7.50;;;17.80;99.90;;;;;;6373325;27;20051;-82
2023/08/01 03:01:20;;;;;;;9.35;6.22;;;17.80;99.90;;;;;;6373908;27;20047;-81
2023/08/01 03:04:21;;;;;;;10.45;5.93;;;17.80;99.90;;;;;;6374582;27;20043;-82
2023/08/01 03:07:25;;;;;;;11.75;6.07;;;17.80;99.90;;;;;;6373648;27;20049;-81
2023/08/01 03:10:26;;;;;;;6.63;5.93;;;17.90;99.90;;;;;;6375033;28;20437;-82
2023/08/01 03:13:28;;;;;;;13.15;5.95;;;17.90;99.90;;;;;;6370507;28;20132;-82
2023/08/01 03:16:30;;;;;;;8.70;5.43;;;17.90;99.90;;;;;;6375723;28;20050;-82
2023/08/01 03:19:32;;;;;;;8.30;6.00;;;17.90;99.90;;;;;;6374932;28;20050;-82
2023/08/01 03:22:35;;;;;;;9.48;6.38;;;18.00;99.90;;;;;;6376109;28;20043;-82
2023/08/01 03:25:37;;;;;;;7.95;5.63;;;18.00;99.90;;;;;;6375422;28;20366;-82
2023/08/01 03:28:38;;;;;;;8.90;5.47;;;17.90;99.90;;;;;;6375543;28;20043;-82
2023/08/01 03:31:40;;;;;;;7.15;4.45;;;17.90;99.90;;;;;;6376423;28;20047;-81
2023/08/01 03:34:42;;;;;;;10.32;5.22;;;17.90;99.90;;;;;;6377485;28;20043;-81
2023/08/01 03:37:45;;;;;;;13.32;4.45;;;17.80;99.90;;;;;;6354309;28;20426;-80
2023/08/01 03:40:47;;;;;;;10.13;5.57;;;17.80;99.90;;;;;;6364280;28;20054;-80
2023/08/01 03:43:49;;;;;;;7.57;4.93;;;17.80;99.90;;;;;;6349598;28;20044;-82
2023/08/01 03:46:50;;;;;;;7.53;5.53;;;17.80;99.90;;;;;;6350485;28;20044;-82
2023/08/01 03:49:52;;;;;;;8.73;5.38;;;17.80;99.90;;;;;;6375356;28;20057;-82
2023/08/01 03:52:55;;;;;;;6.53;4.90;;;17.80;99.90;;;;;;6372933;28;20050;-82
2023/08/01 03:55:57;;;;;;;8.27;4.80;;;17.80;99.90;;;;;;6372748;28;20047;-80
2023/08/01 03:58:58;;;;;;;11.95;5.32;;;17.80;99.90;;;;;;6372594;28;20051;-81
2023/08/01 04:02:00;;;;;;;8.02;5.22;;;17.80;99.90;;;;;;6373483;28;20078;-81
2023/08/01 04:05:02;;;;;;;10.68;4.68;;;17.80;99.90;;;;;;6372503;28;20043;-81
2023/08/01 04:08:05;;;;;;;6.93;4.55;;;17.90;99.90;;;;;;6372254;27;20047;-81
2023/08/01 04:11:07;;;;;;;8.68;4.30;;;17.90;99.90;;;;;;6377246;27;20074;-80
2023/08/01 04:14:08;;;;;;;9.13;4.72;;;18.00;99.90;;;;;;6377242;27;20039;-80
2023/08/01 04:17:10;;;;;;;11.10;6.18;;;18.00;99.90;;;;;;6376568;27;20043;-81
2023/08/01 04:20:12;;;;;;;6.25;4.57;;;18.10;99.90;;;;;;6376688;27;20048;-81
2023/08/01 04:23:15;;;;;;;9.50;5.00;;;18.10;99.90;;;;;;6376799;27;20051;-81
2023/08/01 04:26:17;;;;;;;8.20;4.68;;;18.10;99.90;;;;;;6376972;27;20043;-81
2023/08/01 04:29:18;;;;;;;6.35;4.85;;;18.10;99.90;;;;;;6376301;27;20070;-81
2023/08/01 04:32:20;;;;;;;10.88;5.15;;;18.10;99.90;;;;;;6375978;27;20043;-81
2023/08/01 04:35:22;;;;;;;12.77;6.50;;;18.00;99.90;;;;;;6378458;27;20050;-81
2023/08/01 04:38:25;;;;;;;10.05;5.07;;;18.10;99.90;;;;;;6376872;27;20440;-80
2023/08/01 04:41:27;;;;;;;11.35;5.97;;;18.10;99.90;;;;;;6376989;27;20050;-81
2023/08/01 04:44:30;;;;;;;8.68;4.53;;;18.00;99.90;;;;;;6376862;27;20047;-81
2023/08/01 04:47:31;;;;;;;10.20;4.60;;;18.00;99.90;;;;;;6377103;27;20072;-80
2023/08/01 04:50:33;;;;;;;8.23;5.80;;;18.00;99.90;;;;;;6376978;27;20047;-81
2023/08/01 04:53:36;;;;;;;6.65;4.22;;;18.00;99.90;;;;;;6376531;27;20050;-80
2023/08/01 04:56:38;;;;;;;9.13;5.20;;;18.00;99.90;;;;;;6376420;27;20062;-81
2023/08/01 04:59:39;;;;;;;8.07;5.57;;;18.00;99.90;;;;;;6374784;27;20050;-81
2023/08/01 05:02:41;;;;;;;10.40;5.00;;;17.90;99.90;;;;;;6376854;27;20047;-81
2023/08/01 05:05:43;;;;;;;7.68;3.90;;;17.90;99.90;;;;;;6375377;27;20044;-80
2023/08/01 05:08:46;;;;;;;8.35;4.65;;;17.90;99.90;;;;;;6374829;27;20051;-81
2023/08/01 05:11:47;;;;;;;9.70;5.45;;;17.90;99.90;;;;;;6375893;27;20406;-80
2023/08/01 05:14:49;;;;;;;8.60;4.80;;;18.00;99.90;;;;;;6375777;27;20043;-81
2023/08/01 05:17:51;;;;;;;12.60;5.18;;;18.00;99.90;;;;;;6370383;27;20040;-81
2023/08/01 05:20:52;;;;;;;11.90;5.10;;;18.00;99.90;;;;;;6371758;27;20047;-81
2023/08/01 05:23:55;;;;;;;9.60;4.38;;;18.00;99.90;;;;;;6375287;27;20058;-80
2023/08/01 05:26:57;;;;;;;8.20;4.30;;;18.00;99.90;;;;;;6375027;27;20062;-82
2023/08/01 05:29:59;;;;;;;6.80;4.60;;;18.20;99.90;;;;;;6375125;27;20414;-81
2023/08/01 05:33:00;;;;;;;4.45;3.60;;;18.20;99.90;;;;;;6375137;27;20039;-81
2023/08/01 05:36:02;;;;;;;12.60;4.95;;;18.10;99.90;;;;;;6382434;27;20043;-84
2023/08/01 05:39:05;;;;;;;10.32;5.30;;;18.10;99.90;;;;;;6374431;27;20477;-82
2023/08/01 05:42:08;;;;;;;10.70;6.63;;;18.00;99.90;;;;;;6376535;27;20051;-83
2023/08/01 05:45:11;;;;;;;10.40;5.50;;;17.90;99.90;;;;;;6375192;27;20130;-81
2023/08/01 05:48:13;;;;;;;10.85;5.78;;;17.80;99.90;;;;;;6376095;27;20115;-80
2023/08/01 05:51:17;;;;;;;10.27;5.35;;;17.70;99.90;;;;;;6378366;27;20550;-80
2023/08/01 05:54:20;;;;;;;10.82;5.70;;;17.70;99.90;;;;;;6377704;27;20047;-80
2023/08/01 05:57:22;;;;;;;11.55;6.00;;;17.70;99.90;;;;;;6376621;27;20043;-81
2023/08/01 06:00:24;;;;;;;14.25;7.82;;;17.60;99.90;;;;;;6332414;27;20054;-80
2023/08/01 06:03:25;;;;;;;16.02;6.85;;;17.60;99.90;;;;;;6364568;27;20047;-80
2023/08/01 06:06:27;;;;;;;14.27;7.13;;;17.60;99.90;;;;;;6380748;27;20164;-81
2023/08/01 06:09:30;;;;;;;13.88;6.28;;;17.50;99.90;;;;;;6375510;27;20389;-78
2023/08/01 06:12:32;;;;;;;16.33;7.25;;;17.40;99.90;;;;;;6381861;27;20490;-78
2023/08/01 06:15:33;;;;;;;10.80;7.93;;;17.30;99.90;;;;;;6380340;27;20046;-79
2023/08/01 06:18:35;;;;;;;14.88;7.45;;;17.20;99.90;;;;;;6379275;27;20051;-80
2023/08/01 06:21:37;;;;;;;20.58;7.50;;;17.10;99.90;;;;;;6373755;27;20066;-78
2023/08/01 06:24:40;;;;;;;13.13;8.10;;;17.00;99.90;;;;;;6372123;27;20054;-77
2023/08/01 06:27:41;;;;;;;13.32;7.78;;;17.00;99.90;;;;;;6372811;27;20049;-78
2023/08/01 06:30:43;;;;;;;11.88;7.72;;;17.00;99.90;;;;;;6380752;27;20047;-80
2023/08/01 06:33:45;;;;;;;14.25;8.38;;;16.90;99.90;;;;;;6379309;27;20039;-80
2023/08/01 06:36:46;;;;;;;12.32;7.38;;;16.90;99.90;;;;;;6379509;27;20054;-80
2023/08/01 06:39:50;;;;;;;14.50;7.28;;;17.00;99.90;;;;;;6384456;27;20091;-78
2023/08/01 06:42:51;;;;;;;24.80;9.30;;;17.00;99.90;;;;;;6379318;27;20133;-80
2023/08/01 06:45:53;;;;;;;15.85;8.98;;;17.00;99.90;;;;;;6380910;27;20054;-79
2023/08/01 06:48:55;;;;;;;13.05;7.65;;;17.00;99.90;;;;;;6375135;27;20050;-80
2023/08/01 06:51:56;;;;;;;14.95;7.15;;;17.00;99.90;;;;;;6381861;27;20501;-79
2023/08/01 06:55:00;;;;;;;10.90;8.18;;;17.00;99.90;;;;;;6377364;27;20395;-78
2023/08/01 06:58:01;;;;;;;15.85;8.30;;;17.10;99.90;;;;;;6378181;27;20039;-80
2023/08/01 07:01:03;;;;;;;15.00;8.20;;;17.10;99.90;;;;;;6377752;27;20039;-80
2023/08/01 07:04:05;;;;;;;17.67;7.65;;;17.10;99.90;;;;;;6377784;27;20039;-79
2023/08/01 07:07:08;;;;;;;14.50;8.15;;;17.20;99.90;;;;;;6377599;27;20074;-79
2023/08/01 07:10:11;;;;;;;20.85;10.80;;;17.20;99.90;;;;;;6377458;27;20047;-80
2023/08/01 07:13:13;;;;;;;13.95;8.25;;;17.30;99.90;;;;;;6377919;28;20407;-80
2023/08/01 07:16:15;;;;;;;14.82;7.28;;;17.30;99.90;;;;;;6380416;28;20532;-79
2023/08/01 07:19:16;;;;;;;12.32;7.75;;;17.30;99.90;;;;;;6378529;28;20039;-79
2023/08/01 07:22:18;;;;;;;13.60;8.48;;;17.30;99.90;;;;;;6368745;28;20066;-80
2023/08/01 07:25:22;;;;;;;15.07;7.93;;;17.40;99.90;;;;;;6379651;28;20450;-80
2023/08/01 07:28:23;;;;;;;19.58;7.90;;;17.40;99.90;;;;;;6375728;28;20063;-80
2023/08/01 07:31:25;;;;;;;14.38;7.90;;;17.40;99.90;;;;;;6368267;28;20048;-79
2023/08/01 07:34:27;;;;;;;19.65;7.60;;;17.40;99.90;;;;;;6380499;28;20043;-79
2023/08/01 07:37:28;;;;;;;17.30;9.85;;;17.30;99.90;;;;;;6350313;28;20044;-81
2023/08/01 07:40:32;;;;;;;15.88;7.55;;;17.30;99.90;;;;;;6356963;28;20130;-80
2023/08/01 07:43:33;;;;;;;8.27;6.80;;;17.40;99.90;;;;;;6376318;27;20421;-76
2023/08/01 07:46:35;;;;;;;13.95;7.60;;;17.30;99.90;;;;;;6365178;27;20050;-80
2023/08/01 07:49:37;;;;;;;15.52;7.20;;;17.40;99.90;;;;;;6381164;27;20122;-80
2023/08/01 07:52:38;;;;;;;13.77;7.53;;;17.30;99.90;;;;;;6380023;27;20051;-80
2023/08/01 07:55:41;;;;;;;13.43;6.60;;;17.30;99.90;;;;;;6380251;27;20043;-78
2023/08/01 07:58:43;;;;;;;12.40;6.47;;;17.30;99.90;;;;;;6379112;27;20058;-79
2023/08/01 08:01:45;;;;;;;11.20;6.78;;;17.30;99.90;;;;;;6377346;27;20050;-81
2023/08/01 08:04:46;;;;;;;10.82;6.32;;;17.30;99.90;;;;;;6378263;27;20036;-81
2023/08/01 08:07:48;;;;;;;8.82;6.38;;;17.30;99.90;;;;;;6369849;27;20046;-80
2023/08/01 08:10:51;;;;;;;11.65;6.40;;;17.30;99.90;;;;;;6384589;27;20560;-81
2023/08/01 08:13:53;;;;;;;11.27;6.50;;;17.30;99.90;;;;;;6387461;27;20504;-79
2023/08/01 08:16:54;;;;;;;15.77;8.90;;;17.40;99.90;;;;;;6386786;27;20054;-81
2023/08/01 08:19:58;;;;;;;11.90;8.95;;;17.40;99.90;;;;;;6389911;27;20449;-82
2023/08/01 08:23:00;;;;;;;7.97;5.70;;;17.40;99.90;;;;;;6378726;27;20063;-80
2023/08/01 08:26:05;;;;;;;12.05;7.47;;;17.40;99.90;;;;;;6378456;27;20559;-81
2023/08/01 08:29:07;;;;;;;9.65;5.80;;;17.40;99.90;;;;;;6376690;27;20168;-81
2023/08/01 08:32:10;;;;;;;7.20;4.97;;;17.40;99.90;;;;;;6380347;27;20128;-81
2023/08/01 08:35:12;;;;;;;9.05;5.88;;;17.40;99.90;;;;;;6376116;27;20391;-82
2023/08/01 08:38:14;;;;;;;9.70;4.90;;;17.50;99.90;;;;;;6378137;27;20053;-80
2023/08/01 08:41:22;;;;;;;9.43;4.95;;;17.60;99.90;;;;;;6376585;27;20117;-80
2023/08/01 08:44:25;;;;;;;8.88;5.30;;;17.60;99.90;;;;;;6378053;27;20047;-79
2023/08/01 08:47:29;;;;;;;7.20;5.15;;;17.60;99.90;;;;;;6377662;27;20046;-80
2023/08/01 08:50:32;;;;;;;4.75;3.40;;;17.70;99.90;;;;;;6376602;27;20096;-80
2023/08/01 08:53:36;;;;;;;4.32;2.15;;;17.80;99.90;;;;;;6375343;27;20082;-79
2023/08/01 08:56:41;;;;;;;3.80;2.70;;;17.90;99.90;;;;;;6374225;27;20549;-79
2023/08/01 08:59:46;;;;;;;2.40;2.03;;;18.10;99.90;;;;;;6374784;27;20058;-79
2023/08/01 09:02:48;;;;;;;2.47;2.28;;;18.40;99.90;;;;;;6375698;27;20050;-78
2023/08/01 09:05:51;;;;;;;5.07;1.63;;;18.70;99.90;;;;;;6375182;27;20065;-82
2023/08/01 09:09:11;;;;;;;2.50;2.22;;;19.10;99.90;;;;;;6374141;27;20043;-79
2023/08/01 09:12:14;;;;;;;3.30;2.10;;;19.40;99.90;;;;;;6374248;27;20134;-78
2023/08/01 09:15:17;;;;;;;2.05;1.38;;;19.70;99.90;;;;;;6371088;27;20047;-77
2023/08/01 09:18:19;;;;;;;1.13;1.00;;;20.10;99.90;;;;;;6369987;27;20653;-80
2023/08/01 09:21:22;;;;;;;2.40;1.00;;;20.40;99.90;;;;;;6373544;27;20055;-81
2023/08/01 09:24:24;;;;;;;1.40;1.10;;;20.60;99.90;;;;;;6373292;27;20043;-82
2023/08/01 09:27:34;;;;;;;2.42;1.10;;;20.90;99.90;;;;;;6373411;27;20057;-83
2023/08/01 09:30:47;;;;;;;2.17;1.00;;;21.30;99.90;;;;;;6374173;27;20058;-83
2023/08/01 09:33:49;;;;;;;2.17;1.60;;;21.60;99.90;;;;;;6374418;27;20051;-82
2023/08/01 09:40:49;;;;;;;1.13;0.82;;;22.30;99.90;;;;;;6365199;27;20035;-81
2023/08/01 09:43:53;;;;;;;1.20;0.80;;;22.60;99.90;;;;;;6380208;27;20133;-82
2023/08/01 09:46:59;;;;;;;1.60;0.75;;;22.80;99.90;;;;;;6384216;27;20043;-81
2023/08/01 09:50:02;;;;;;;0.60;0.60;;;22.90;99.90;;;;;;6382956;27;20059;-80
2023/08/01 09:53:10;;;;;;;1.05;0.90;;;23.00;99.90;;;;;;6381661;27;20043;-80
2023/08/01 09:56:15;;;;;;;2.33;1.67;;;23.20;99.90;;;;;;6380357;27;20050;-82
2023/08/01 09:59:21;;;;;;;1.95;0.88;;;23.30;99.90;;;;;;6377403;27;20047;-81
2023/08/01 10:02:26;;;;;;;2.58;0.88;;;23.60;99.90;;;;;;6377072;27;20055;-80
2023/08/01 10:05:31;;;;;;;0.90;0.73;;;23.90;99.90;;;;;;6383940;27;20043;-80
2023/08/01 10:08:34;;;;;;;3.70;0.85;;;23.90;99.90;;;;;;6375956;27;20043;-80
2023/08/01 10:11:39;;;;;;;0.73;0.60;;;24.00;99.90;;;;;;6378302;27;20047;-79
2023/08/01 10:14:44;;;;;;;2.60;1.00;;;24.10;99.90;;;;;;6382772;27;20043;-78
2023/08/01 10:17:46;;;;;;;1.02;0.90;;;24.50;99.90;;;;;;6370952;27;20449;-78
2023/08/01 10:20:50;;;;;;;3.83;1.13;;;24.50;99.90;;;;;;6374204;27;20054;-78
2023/08/01 10:23:52;;;;;;;0.90;0.70;;;24.70;99.90;;;;;;6372076;27;20047;-78
2023/08/01 10:26:55;;;;;;;2.10;0.68;;;24.60;99.90;;;;;;6371189;27;20086;-78
2023/08/01 10:30:03;;;;;;;1.92;0.80;;;24.60;99.90;;;;;;6372385;27;20390;-77
2023/08/01 10:33:05;;;;;;;0.95;0.77;;;24.60;99.90;;;;;;6371904;27;20513;-79
2023/08/01 10:36:15;;;;;;;0.80;0.60;;;24.70;99.90;;;;;;6371437;27;20058;-77
2023/08/01 10:39:22;;;;;;;1.10;1.00;;;24.60;99.90;;;;;;6371264;27;20055;-77
2023/08/01 10:42:25;;;;;;;1.73;1.00;;;24.80;99.90;;;;;;6373023;27;20043;-77
2023/08/01 10:45:29;;;;;;;1.27;1.10;;;25.10;99.90;;;;;;6378379;27;20039;-79
2023/08/01 10:48:32;;;;;;;2.35;1.30;;;25.50;99.90;;;;;;6383837;27;20053;-80
2023/08/01 10:51:38;;;;;;;2.20;1.38;;;25.90;99.90;;;;;;6367662;27;20099;-79
2023/08/01 10:54:40;;;;;;;2.05;1.63;;;26.20;99.90;;;;;;6381409;27;20459;-77
2023/08/01 10:57:49;;;;;;;2.47;1.10;;;26.20;99.90;;;;;;6362432;27;20044;-78
2023/08/01 11:01:00;;;;;;;2.97;1.17;;;26.30;99.90;;;;;;6386014;27;20039;-76
2023/08/01 11:04:05;;;;;;;2.17;1.33;;;26.10;99.90;;;;;;6371570;27;20031;-78
2023/08/01 11:07:07;;;;;;;2.97;1.10;;;25.40;99.90;;;;;;6376394;27;20047;-77
2023/08/01 11:10:11;;;;;;;2.17;1.42;;;24.80;99.90;;;;;;6370487;27;20058;-77
2023/08/01 11:13:13;;;;;;;1.95;1.13;;;24.50;99.90;;;;;;6371068;28;20053;-77
2023/08/01 11:16:17;;;;;;;1.05;0.95;;;24.30;99.90;;;;;;6371569;27;20043;-77
2023/08/01 11:19:21;;;;;;;1.67;1.08;;;23.90;99.90;;;;;;6374135;27;20050;-78
2023/08/01 11:22:23;;;;;;;2.00;1.40;;;23.90;99.90;;;;;;6370586;27;20072;-79
2023/08/01 11:25:38;;;;;;;2.20;1.00;;;24.00;99.90;;;;;;6370692;27;20193;-78
2023/08/01 11:28:41;;;;;;;3.65;1.50;;;24.10;99.90;;;;;;6376869;27;20127;-77
2023/08/01 11:31:55;;;;;;;1.52;0.90;;;24.00;99.90;;;;;;6376199;27;20050;-77
2023/08/01 11:34:57;;;;;;;3.47;1.60;;;23.80;99.90;;;;;;6375443;27;20601;-77
2023/08/01 11:37:59;;;;;;;1.73;1.35;;;23.70;99.90;;;;;;6376308;27;20378;-77
2023/08/01 11:41:02;;;;;;;1.83;1.23;;;23.60;99.90;;;;;;6377280;27;20414;-79
2023/08/01 11:44:06;;;;;;;2.20;1.20;;;23.50;99.90;;;;;;6377262;27;20122;-78
2023/08/01 11:47:14;;;;;;;2.08;1.30;;;23.80;99.90;;;;;;6376564;27;20119;-78
2023/08/01 11:50:21;;;;;;;1.95;1.20;;;24.30;99.90;;;;;;6377159;27;20512;-78
2023/08/01 11:53:23;;;;;;;;;;;24.70;99.90;;;;;;6376948;27;20046;-78
2023/08/01 11:56:26;;;;;;;2.28;1.35;;;25.00;99.90;;;;;;6350449;28;19920;-78
2023/08/01 11:59:28;;;;;;;1.77;1.10;;;25.40;99.90;;;;;;6361131;27;20522;-78
2023/08/01 12:02:31;;;;;;;1.25;0.90;;;25.80;99.90;;;;;;6356269;27;20531;-77
2023/08/01 12:05:33;;;;;;;1.63;1.10;;;26.10;99.90;;;;;;6363269;27;20043;-78
2023/08/01 12:08:36;;;;;;;2.63;1.20;;;25.90;99.90;;;;;;6376597;27;20497;-79
2023/08/01 12:11:39;;;;;;;1.52;1.30;;;25.70;99.90;;;;;;6380015;27;20111;-80
2023/08/01 12:14:42;;;;;;;3.00;1.33;;;25.70;99.90;;;;;;6376050;27;20051;-79
2023/08/01 12:17:45;;;;;;;2.92;1.40;;;25.60;99.90;;;;;;6349474;28;20043;-79
2023/08/01 12:20:48;;;;;;;1.67;1.23;;;25.60;99.90;;;;;;6344728;28;20157;-80
2023/08/01 12:23:50;;;;;;;6.07;1.48;;;26.00;99.90;;;;;;6349562;28;20373;-79
2023/08/01 12:26:52;;;;;;;2.53;1.67;;;26.30;99.90;;;;;;6349727;28;20052;-79
2023/08/01 12:29:54;;;;;;;2.17;1.20;;;26.60;99.90;;;;;;6348890;28;20047;-79
2023/08/01 12:32:58;;;;;;;2.78;1.05;;;26.60;99.90;;;;;;6349798;27;20066;-79
2023/08/01 12:36:00;;;;;;;1.67;0.82;;;26.50;99.90;;;;;;6360259;27;20043;-79
2023/08/01 12:39:03;;;;;;;1.85;1.05;;;26.40;99.90;;;;;;6373873;27;20039;-78
2023/08/01 12:42:05;;;;;;;3.45;1.40;;;26.50;99.90;;;;;;6377071;27;20050;-78
2023/08/01 12:45:08;;;;;;;2.50;1.00;;;26.60;99.90;;;;;;6376099;27;20079;-80
2023/08/01 12:48:12;;;;;;;3.88;1.88;;;26.40;99.90;;;;;;6374425;27;20051;-79
2023/08/01 12:51:15;;;;;;;3.17;1.50;;;26.30;99.90;;;;;;6374982;27;20039;-78
2023/08/01 12:54:17;;;;;;;3.70;1.45;;;26.40;99.90;;;;;;6380043;27;20054;-78
2023/08/01 12:57:20;;;;;;;3.60;1.15;;;26.30;99.90;;;;;;6378050;27;20046;-79
2023/08/01 13:00:22;;;;;;;1.95;1.25;;;26.00;99.90;;;;;;6377997;27;20126;-77
2023/08/01 13:03:27;;;;;;;4.10;1.30;;;26.00;99.90;;;;;;6373973;27;20050;-81
2023/08/01 13:06:29;;;;;;;2.50;1.10;;;26.10;99.90;;;;;;6374092;27;20414;-78
2023/08/01 13:09:31;;;;;;;2.22;1.45;;;25.90;99.90;;;;;;6369212;27;20551;-78
2023/08/01 13:12:33;;;;;;;2.25;1.45;;;25.90;99.90;;;;;;6373728;27;20043;-79
2023/08/01 13:15:35;;;;;;;3.42;1.83;;;25.90;99.90;;;;;;6373259;27;20077;-80
2023/08/01 13:18:43;;;;;;;2.30;1.15;;;26.00;99.90;;;;;;6347211;27;20047;-79
2023/08/01 13:21:45;;;;;;;;;;;26.20;99.90;;;;;;6373350;27;20129;-81
2023/08/01 13:24:47;;;;;;;1.90;1.25;;;26.40;99.90;;;;;;6382651;27;19919;-83
2023/08/01 13:27:49;;;;;;;1.88;1.60;;;26.30;99.90;;;;;;6380077;27;20142;-81
2023/08/01 13:30:50;;;;;;;2.60;1.00;;;26.30;99.90;;;;;;6375848;27;20054;-82
2023/08/01 13:33:53;;;;;;;2.45;1.33;;;26.00;99.90;;;;;;6377999;27;20054;-81
2023/08/01 13:36:55;;;;;;;3.22;1.10;;;26.00;99.90;;;;;;6376258;27;20047;-81
2023/08/01 13:39:58;;;;;;;1.95;0.93;;;26.40;99.90;;;;;;6375445;27;20049;-82
2023/08/01 13:42:59;;;;;;;1.27;1.17;;;26.40;99.40;;;;;;6374185;27;20050;-82
2023/08/01 13:46:01;;;;;;;3.80;1.60;;;26.50;99.60;;;;;;6375123;27;20076;-78
2023/08/01 13:49:04;;;;;;;2.50;1.05;;;26.90;99.90;;;;;;6373746;27;20051;-78
2023/08/01 13:52:07;;;;;;;1.73;1.27;;;27.30;99.90;;;;;;6368544;27;20466;-78
2023/08/01 13:55:10;;;;;;;7.65;1.67;;;27.50;99.30;;;;;;6360759;27;20054;-82
2023/08/01 13:58:11;;;;;;;4.13;1.33;;;27.60;99.00;;;;;;6374707;27;20062;-78
2023/08/01 14:01:13;;;;;;;3.47;1.25;;;27.90;98.60;;;;;;6374884;27;20506;-80
2023/08/01 14:04:16;;;;;;;5.43;1.88;;;28.10;96.40;;;;;;6372988;27;20055;-81
2023/08/01 14:07:18;;;;;;;2.80;1.30;;;28.50;95.30;;;;;;6374252;27;20497;-80
2023/08/01 14:10:21;;;;;;;1.50;1.00;;;28.20;92.70;;;;;;6374622;27;20121;-80
2023/08/01 14:13:23;;;;;;;3.08;1.65;;;28.10;92.20;;;;;;6372578;27;20049;-79
2023/08/01 14:16:25;;;;;;;2.95;1.25;;;28.20;92.00;;;;;;6373887;27;20043;-78
2023/08/01 14:19:29;;;;;;;2.50;1.23;;;28.30;90.80;;;;;;6370575;27;20043;-81
2023/08/01 14:22:31;;;;;;;2.45;0.80;;;28.40;89.80;;;;;;6368146;27;20106;-78
2023/08/01 14:25:33;;;;;;;1.42;1.08;;;28.40;88.60;;;;;;6374477;27;20039;-80
2023/08/01 14:28:34;;;;;;;1.42;1.33;;;28.10;88.00;;;;;;6374096;27;20042;-80
2023/08/01 14:31:37;;;;;;;6.10;1.30;;;28.00;85.80;;;;;;6374497;27;20130;-80
2023/08/01 14:34:40;;;;;;;1.65;0.70;;;28.00;83.10;;;;;;6377131;27;20054;-82
2023/08/01 14:37:47;;;;;;;3.03;1.35;;;28.00;77.80;;;;;;6378328;27;20417;-82
2023/08/01 14:40:49;;;;;;;4.45;1.50;;;27.80;77.00;;;;;;6377775;27;20047;-82
2023/08/01 14:43:51;;;;;;;1.92;1.20;;;27.70;76.80;;;;;;6377220;27;20050;-81
2023/08/01 14:46:54;;;;;;;4.30;1.63;;;27.50;75.90;;;;;;6378102;27;20054;-81
2023/08/01 14:49:57;;;;;;;2.35;1.10;;;27.50;78.50;;;;;;6371170;27;20043;-80
2023/08/01 14:52:59;;;;;;;1.95;1.08;;;27.90;77.10;;;;;;6363885;27;20043;-80
2023/08/01 14:56:02;;;;;;;2.42;1.42;;;28.20;76.30;;;;;;6373525;27;20040;-81
2023/08/01 14:59:07;;;;;;;1.98;1.38;;;28.30;75.00;;;;;;6373477;27;20486;-82
2023/08/01 15:02:08;;;;;;;2.20;1.23;;;28.20;73.50;;;;;;6374490;27;20063;-82
2023/08/01 15:05:13;;;;;;;3.45;1.80;;;28.20;73.60;;;;;;6376236;27;20058;-80
2023/08/01 15:08:15;;;;;;;3.65;1.70;;;28.10;72.00;;;;;;6374365;27;20053;-81
2023/08/01 15:11:17;;;;;;;1.73;1.42;;;28.10;70.10;;;;;;6374092;27;20524;-80
2023/08/01 15:14:19;;;;;;;4.35;1.33;;;28.20;70.30;;;;;;6375177;27;20055;-80
2023/08/01 15:17:21;;;;;;;4.32;1.00;;;28.20;70.20;;;;;;6369088;27;20044;-80
2023/08/01 15:20:24;;;;;;;2.20;1.13;;;28.50;69.60;;;;;;6370734;27;20073;-81
2023/08/01 15:23:25;;;;;;;2.70;1.52;;;28.20;67.80;;;;;;6374279;27;20043;-80
2023/08/01 15:26:27;;;;;;;2.20;1.73;;;27.90;68.40;;;;;;6374951;28;20058;-81
2023/08/01 15:29:29;;;;;;;1.88;1.77;;;27.70;67.50;;;;;;6373269;27;20046;-81
2023/08/01 15:32:30;;;;;;;1.25;1.00;;;27.50;67.10;;;;;;6374209;28;20040;-82
2023/08/01 15:35:33;;;;;;;1.95;1.33;;;27.70;68.00;;;;;;6374353;28;20713;-80
2023/08/01 15:38:37;;;;;;;3.70;1.30;;;27.80;67.70;;;;;;6373889;28;20458;-80
2023/08/01 15:41:38;;;;;;;2.38;1.38;;;27.70;66.50;;;;;;6373367;28;20043;-80
2023/08/01 15:44:40;;;;;;;1.30;1.08;;;27.50;66.90;;;;;;6374580;28;20054;-82
2023/08/01 15:47:42;;;;;;;1.45;1.33;;;27.50;66.40;;;;;;6379903;28;20051;-80
2023/08/01 15:50:46;;;;;;;3.40;1.38;;;27.50;66.00;;;;;;6373095;27;20054;-80